createdAt,value
2022-09-12T00:04:59.123Z,3.40
2022-09-12T00:15:26.395Z,3.30
2022-09-12T00:26:29.950Z,3.20
2022-09-12T00:37:04.606Z,3.20
2022-09-12T00:47:29.836Z,3.60
2022-09-12T00:58:07.649Z,3.50
2022-09-12T01:09:00.743Z,3.90
2022-09-12T01:20:31.504Z,3.90
2022-09-12T01:32:05.102Z,4.10
2022-09-12T01:42:41.998Z,4.20
2022-09-12T01:53:09.755Z,4.40
2022-09-12T02:04:23.834Z,4.10
2022-09-12T02:15:33.466Z,4.30
2022-09-12T02:25:46.065Z,4.40
2022-09-12T02:36:44.280Z,4.40
2022-09-12T02:47:40.951Z,4.40
2022-09-12T02:58:11.849Z,4.90
2022-09-12T03:09:04.442Z,4.80
2022-09-12T03:20:20.290Z,4.90
2022-09-12T03:31:36.310Z,4.40
2022-09-12T03:42:07.000Z,4.80
2022-09-12T03:52:36.803Z,4.50
2022-09-12T04:02:59.120Z,4.80
2022-09-12T04:13:54.518Z,5.10
2022-09-12T04:24:30.766Z,5.10
2022-09-12T04:34:58.169Z,4.90
2022-09-12T04:45:06.423Z,4.80
2022-09-12T04:56:08.356Z,4.60
2022-09-12T05:07:18.631Z,4.80
2022-09-12T05:18:26.934Z,4.50
2022-09-12T05:29:33.912Z,4.30
2022-09-12T05:40:29.720Z,4.20
2022-09-12T05:51:31.942Z,4.30
2022-09-12T06:01:50.693Z,4.60
2022-09-12T06:12:27.917Z,4.40
2022-09-12T06:22:44.927Z,4.20
2022-09-12T06:32:57.149Z,4.40
2022-09-12T06:43:03.261Z,4.30
2022-09-12T06:53:51.036Z,4.10
2022-09-12T07:04:08.756Z,4.70
2022-09-12T07:14:17.343Z,4.40
2022-09-12T07:24:26.304Z,4.40
2022-09-12T07:34:38.424Z,4.40
2022-09-12T07:45:05.541Z,3.90
2022-09-12T07:55:50.407Z,4.20
2022-09-12T08:06:30.511Z,4.40
2022-09-12T08:16:42.757Z,4.10
2022-09-12T08:26:52.391Z,4.00
2022-09-12T08:37:19.948Z,3.80
2022-09-12T08:47:58.438Z,4.50
2022-09-12T08:58:50.831Z,4.20
2022-09-12T09:10:15.252Z,4.20
2022-09-12T09:21:33.000Z,4.60
2022-09-12T09:32:47.838Z,3.90
2022-09-12T09:43:58.373Z,4.10
2022-09-12T09:54:52.323Z,3.90
2022-09-12T10:05:05.447Z,3.90
2022-09-12T10:15:31.596Z,4.30
2022-09-12T10:25:35.062Z,4.30
2022-09-12T10:36:02.303Z,4.30
2022-09-12T10:46:38.126Z,4.20
2022-09-12T10:57:31.366Z,4.10
2022-09-12T11:08:53.696Z,3.80
2022-09-12T11:19:25.853Z,3.90
2022-09-12T11:29:59.476Z,3.60
2022-09-12T11:40:32.065Z,3.50
2022-09-12T11:50:57.942Z,3.70
2022-09-12T12:01:23.328Z,4.10
2022-09-12T12:11:49.268Z,3.60
2022-09-12T12:22:51.332Z,3.40
2022-09-12T12:33:43.278Z,3.70
2022-09-12T12:44:44.790Z,3.30
2022-09-12T12:55:42.478Z,3.40
2022-09-12T13:06:10.488Z,3.30
2022-09-12T13:16:32.524Z,3.40
2022-09-12T13:27:19.382Z,3.60
2022-09-12T13:38:20.907Z,3.30
2022-09-12T13:48:44.692Z,3.50
2022-09-12T13:59:00.483Z,3.40
2022-09-12T14:19:29.574Z,3.60
2022-09-12T14:29:35.294Z,3.30
2022-09-12T14:39:45.710Z,3.10
2022-09-12T14:50:22.382Z,3.30
2022-09-12T15:00:26.514Z,3.20
2022-09-12T15:10:37.844Z,3.10
2022-09-12T15:20:47.973Z,3.00
2022-09-12T15:31:06.003Z,3.40
2022-09-12T15:41:38.280Z,3.10
2022-09-12T15:51:44.569Z,3.50
2022-09-12T16:01:53.158Z,3.20
2022-09-12T16:12:01.757Z,3.10
2022-09-12T16:22:52.762Z,3.50
2022-09-12T16:32:58.934Z,3.50
2022-09-12T16:43:05.416Z,4.20
2022-09-12T16:53:11.679Z,4.50
2022-09-12T17:03:18.028Z,3.60
2022-09-12T17:13:41.130Z,4.70
2022-09-12T17:24:18.501Z,6.80
2022-09-12T17:35:12.484Z,7.90
2022-09-12T17:45:53.339Z,7.20
2022-09-12T17:56:33.131Z,6.60
2022-09-12T18:06:40.034Z,7.80
2022-09-12T18:16:43.891Z,8.00
2022-09-12T18:26:59.300Z,8.10
2022-09-12T18:37:07.997Z,7.40
2022-09-12T18:47:13.862Z,8.30
2022-09-12T18:57:24.619Z,8.50
2022-09-12T19:07:51.863Z,9.20
2022-09-12T19:17:55.587Z,8.80
2022-09-12T19:28:10.083Z,9.00
2022-09-12T19:38:25.192Z,9.90
2022-09-12T19:48:49.625Z,10.70
2022-09-12T19:58:58.465Z,10.90
2022-09-12T20:09:26.957Z,10.10
2022-09-12T20:19:33.638Z,9.60
2022-09-12T20:29:46.479Z,38.80
2022-09-12T20:40:17.814Z,9.80
2022-09-12T20:51:29.735Z,13.20
2022-09-12T21:02:15.027Z,9.60
2022-09-12T21:13:03.772Z,12.60
2022-09-12T21:23:55.822Z,14.40
2022-09-12T21:34:18.466Z,13.30
2022-09-12T21:44:39.370Z,11.50
2022-09-12T21:55:00.689Z,11.50
2022-09-12T22:05:42.935Z,10.20
2022-09-12T22:16:29.833Z,11.60
2022-09-12T22:27:05.690Z,11.30
2022-09-12T22:37:53.589Z,12.10
2022-09-12T22:48:12.876Z,11.90
2022-09-12T22:59:01.255Z,12.60
2022-09-12T23:20:16.276Z,10.70
2022-09-12T23:30:42.433Z,11.40
2022-09-12T23:41:40.615Z,11.90
2022-09-12T23:52:16.246Z,11.90
